Time;durP1;ratioP1;P1;durP2;ratioP2;P2;SDS_P1;SDS_P2;PMS_P1;PMS_P2;Temp;Humidity;BMP_temperature;BMP_pressure;BME280_temperature;BME280_humidity;BME280_pressure;Samples;Min_cycle;Max_cycle;Signal;HPM_P1;HPM_P2
2024/01/04 05:22:32;;;;;;;7.30;1.40;;;;;;;8.89;100.00;99019.91;5130260;27;20394;-38
2024/01/04 05:24:58;;;;;;;3.97;0.80;;;;;;;8.81;100.00;99025.38;5130296;28;20035;-37
2024/01/04 05:27:23;;;;;;;6.82;1.40;;;;;;;8.89;100.00;99027.88;5129939;28;20603;-38
2024/01/04 05:29:49;;;;;;;8.02;1.15;;;;;;;8.94;100.00;99032.63;5130094;28;20024;-38
2024/01/04 05:32:14;;;;;;;7.22;1.27;;;;;;;9.00;99.96;99039.81;5130155;28;20035;-38
2024/01/04 05:34:42;;;;;;;4.85;1.27;;;;;;;9.03;98.81;99043.91;5130070;28;20114;-38
2024/01/04 05:37:07;;;;;;;7.95;1.05;;;;;;;9.03;99.84;99042.09;5129767;28;20035;-38
2024/01/04 05:39:33;;;;;;;4.75;1.65;;;;;;;8.95;99.70;99040.41;5130092;28;20110;-39
2024/01/04 05:41:58;;;;;;;6.10;1.13;;;;;;;9.01;98.86;99035.34;5129791;28;20039;-38
2024/01/04 05:44:24;;;;;;;5.78;1.20;;;;;;;9.06;98.10;99054.16;5130241;28;20126;-38
2024/01/04 05:46:50;;;;;;;3.65;1.38;;;;;;;9.10;97.91;99060.72;5129504;27;20100;-37
2024/01/04 05:49:15;;;;;;;3.80;1.35;;;;;;;9.08;98.26;99073.41;5129741;27;20066;-38
2024/01/04 05:51:40;;;;;;;5.90;1.27;;;;;;;8.94;100.00;99077.78;5129647;28;20093;-39
2024/01/04 05:54:06;;;;;;;5.72;1.23;;;;;;;8.85;100.00;99074.41;5129598;28;20043;-38
2024/01/04 05:56:32;;;;;;;5.47;1.33;;;;;;;8.66;100.00;99085.66;5129343;28;20046;-38
2024/01/04 05:58:57;;;;;;;3.47;1.17;;;;;;;8.78;100.00;99080.66;5128372;28;20047;-38
2024/01/04 06:01:23;;;;;;;7.50;2.72;;;;;;;8.72;100.00;99095.53;5129482;28;20040;-39
2024/01/04 06:03:48;;;;;;;4.47;1.95;;;;;;;8.75;100.00;99097.81;5129387;28;20502;-39
2024/01/04 06:06:14;;;;;;;8.05;1.85;;;;;;;8.89;100.00;99099.59;5129361;28;20126;-38
2024/01/04 06:08:43;;;;;;;7.68;1.30;;;;;;;8.89;100.00;99096.94;5129461;28;20067;-38
2024/01/04 06:11:12;;;;;;;9.68;1.27;;;;;;;8.85;100.00;99106.28;5129287;28;20036;-39
2024/01/04 06:13:37;;;;;;;3.55;1.27;;;;;;;8.85;100.00;99102.78;5129265;28;20406;-39
2024/01/04 06:16:07;;;;;;;7.65;1.35;;;;;;;8.84;100.00;99109.94;5128839;28;20035;-38
2024/01/04 06:18:33;;;;;;;3.58;1.10;;;;;;;8.83;99.99;99110.16;5129102;28;20067;-38
2024/01/04 06:20:58;;;;;;;1.90;0.80;;;;;;;8.80;99.78;99111.34;5128896;28;20081;-39
2024/01/04 06:23:25;;;;;;;4.88;0.98;;;;;;;8.91;98.82;99126.75;5129148;28;20456;-38
2024/01/04 06:25:50;;;;;;;2.70;0.90;;;;;;;8.83;99.90;99131.38;5128679;28;20040;-39
2024/01/04 06:28:16;;;;;;;1.42;0.88;;;;;;;8.83;99.34;99153.44;5128969;28;20106;-38
2024/01/04 06:30:41;;;;;;;5.75;0.90;;;;;;;8.85;99.69;99158.56;5129025;28;20510;-39
2024/01/04 06:33:06;;;;;;;5.18;1.02;;;;;;;8.93;97.48;99161.94;5121220;28;20036;-38
2024/01/04 06:35:32;;;;;;;1.42;1.02;;;;;;;8.93;97.45;99169.06;5115568;28;20498;-38
2024/01/04 06:37:57;;;;;;;6.68;0.98;;;;;;;8.83;98.80;99180.00;5116550;28;20115;-38
2024/01/04 06:40:23;;;;;;;7.15;1.30;;;;;;;8.92;97.39;99175.38;5116601;28;20042;-38
2024/01/04 06:42:55;;;;;;;5.90;1.00;;;;;;;8.87;98.93;99189.25;5117353;28;20428;-38
2024/01/04 06:45:22;;;;;;;3.03;0.95;;;;;;;8.96;98.62;99180.16;5115757;28;20047;-38
2024/01/04 06:47:48;;;;;;;10.18;2.33;;;;;;;8.85;99.66;99198.41;5114848;28;20044;-38
2024/01/04 06:50:13;;;;;;;4.78;1.17;;;;;;;8.78;100.00;99195.66;5114920;28;20047;-38
2024/01/04 06:52:38;;;;;;;11.43;1.80;;;;;;;8.80;100.00;99191.00;5114712;28;20414;-39
2024/01/04 06:55:05;;;;;;;5.60;1.23;;;;;;;8.72;100.00;99206.22;5114631;28;20047;-38
2024/01/04 06:57:30;;;;;;;1.50;1.02;;;;;;;8.70;100.00;99214.38;5114562;28;20118;-38
2024/01/04 06:59:55;;;;;;;4.05;1.05;;;;;;;8.73;100.00;99207.84;5114672;28;20540;-38
2024/01/04 07:02:21;;;;;;;2.05;0.70;;;;;;;8.67;100.00;99212.06;5114666;28;20383;-38
2024/01/04 07:04:46;;;;;;;4.78;1.38;;;;;;;8.73;100.00;99218.47;5114582;28;20154;-38
2024/01/04 07:07:12;;;;;;;9.73;2.50;;;;;;;8.66;100.00;99221.88;5114234;28;20427;-38
2024/01/04 07:09:37;;;;;;;5.20;1.65;;;;;;;8.79;100.00;99231.00;5114430;28;20039;-38
2024/01/04 07:12:03;;;;;;;6.38;1.63;;;;;;;8.70;100.00;99241.75;5114630;28;20119;-38
2024/01/04 07:14:29;;;;;;;1.52;0.57;;;;;;;8.74;100.00;99236.91;5114255;28;20039;-37
2024/01/04 07:16:54;;;;;;;3.95;1.00;;;;;;;8.85;97.79;99247.03;5113951;28;20055;-38
2024/01/04 07:19:20;;;;;;;4.30;1.10;;;;;;;8.85;97.04;99255.00;5114413;28;20040;-37
2024/01/04 07:21:46;;;;;;;2.03;0.73;;;;;;;8.87;97.14;99254.81;5114224;28;20111;-37
2024/01/04 07:24:12;;;;;;;3.40;1.27;;;;;;;8.92;95.46;99261.19;5114198;28;20402;-38
2024/01/04 07:26:37;;;;;;;5.15;1.15;;;;;;;8.86;96.42;99261.94;5113595;28;20027;-37
2024/01/04 07:29:02;;;;;;;4.70;1.10;;;;;;;8.95;94.64;99260.03;5113255;28;20462;-38
2024/01/04 07:31:28;;;;;;;9.85;1.60;;;;;;;8.92;94.02;99271.81;5111929;28;20036;-38
2024/01/04 07:33:53;;;;;;;2.72;1.40;;;;;;;8.99;93.98;99266.59;5113592;28;20035;-39
2024/01/04 07:36:18;;;;;;;2.60;1.17;;;;;;;9.00;93.64;99259.44;5113186;28;20111;-38
2024/01/04 07:38:44;;;;;;;12.20;2.83;;;;;;;8.90;94.15;99265.88;5113596;28;20023;-38
2024/01/04 07:41:09;;;;;;;7.53;1.30;;;;;;;8.94;93.42;99266.34;5113972;28;20046;-38
2024/01/04 07:43:35;;;;;;;3.90;0.90;;;;;;;8.95;93.10;99268.81;5112932;28;20042;-38
2024/01/04 07:46:00;;;;;;;2.72;1.38;;;;;;;8.96;92.75;99278.41;5112218;28;20035;-38
2024/01/04 07:48:25;;;;;;;7.57;1.30;;;;;;;9.10;91.53;99275.91;5113252;27;20054;-38
2024/01/04 07:50:51;;;;;;;4.47;1.40;;;;;;;9.05;91.15;99270.34;5113209;28;20024;-38
2024/01/04 07:53:17;;;;;;;7.55;1.10;;;;;;;9.15;90.13;99268.22;5113244;28;20035;-38
2024/01/04 07:55:42;;;;;;;6.53;1.10;;;;;;;9.05;89.57;99279.13;5109161;28;20049;-37
2024/01/04 07:58:08;;;;;;;5.45;1.70;;;;;;;9.05;89.63;99257.06;5112952;28;20043;-39
2024/01/04 08:00:34;;;;;;;5.63;0.95;;;;;;;9.08;88.20;99275.28;5113066;28;20051;-38
2024/01/04 08:02:59;;;;;;;4.47;1.02;;;;;;;9.05;88.87;99281.78;5113037;28;20035;-37
2024/01/04 08:05:25;;;;;;;4.47;1.10;;;;;;;9.24;87.43;99281.19;5112978;28;20063;-38
2024/01/04 08:07:50;;;;;;;6.47;1.95;;;;;;;9.71;83.49;99294.94;5112025;28;20036;-38
2024/01/04 08:10:15;;;;;;;5.32;1.15;;;;;;;9.34;83.58;99288.88;5112850;28;20122;-37
2024/01/04 08:12:42;;;;;;;2.20;0.90;;;;;;;9.31;84.31;99275.13;5112841;28;20032;-38
2024/01/04 08:15:08;;;;;;;4.05;1.33;;;;;;;9.51;83.70;99281.47;5112759;28;20032;-37
2024/01/04 08:17:35;;;;;;;3.13;1.02;;;;;;;9.24;85.12;99285.69;5112064;28;20080;-36
2024/01/04 08:20:00;;;;;;;2.75;1.00;;;;;;;9.59;81.47;99273.38;5111838;28;20505;-37
2024/01/04 08:22:26;;;;;;;5.07;1.52;;;;;;;9.45;85.09;99275.09;5112526;28;20039;-38
2024/01/04 08:24:51;;;;;;;3.53;1.10;;;;;;;9.32;84.86;99279.41;5112628;28;20029;-39
2024/01/04 08:27:20;;;;;;;3.40;1.08;;;;;;;9.25;84.11;99260.75;5111007;28;20414;-39
2024/01/04 08:29:49;;;;;;;3.42;1.15;;;;;;;11.12;71.95;99260.00;5112508;28;20048;-37
2024/01/04 08:32:16;;;;;;;4.60;1.33;;;;;;;11.14;70.17;99260.63;5112548;28;20119;-37
2024/01/04 08:34:42;;;;;;;3.35;0.75;;;;;;;11.75;66.85;99242.91;5112560;28;20110;-36
2024/01/04 08:37:07;;;;;;;2.55;1.13;;;;;;;11.50;69.13;99264.81;5112286;28;20177;-37
2024/01/04 08:39:33;;;;;;;2.08;1.05;;;;;;;10.43;75.26;99260.13;5112448;27;20032;-37
2024/01/04 08:41:58;;;;;;;6.15;1.27;;;;;;;10.45;75.32;99265.25;5112366;28;20042;-37
2024/01/04 08:44:24;;;;;;;2.55;0.80;;;;;;;10.60;74.15;99261.44;5112457;28;20617;-38
2024/01/04 08:46:50;;;;;;;3.35;1.67;;;;;;;10.23;78.52;99267.97;5110861;28;20036;-38
2024/01/04 08:49:16;;;;;;;4.00;0.93;;;;;;;10.74;75.29;99288.13;5112393;28;20039;-38
2024/01/04 08:51:42;;;;;;;2.75;1.25;;;;;;;11.43;71.40;99285.31;5110789;28;20635;-38
2024/01/04 08:54:07;;;;;;;3.67;1.20;;;;;;;10.10;79.61;99289.13;5112505;28;20038;-37
2024/01/04 08:56:33;;;;;;;2.00;0.98;;;;;;;9.73;82.44;99295.59;5114421;28;20032;-38
2024/01/04 08:59:00;;;;;;;1.65;0.65;;;;;;;9.60;84.77;99300.78;5110804;28;20467;-37
2024/01/04 09:01:25;;;;;;;4.20;0.90;;;;;;;9.63;83.80;99300.41;5112118;28;20036;-37
2024/01/04 09:03:51;;;;;;;3.88;1.25;;;;;;;9.64;83.39;99299.38;5112051;27;20059;-37
2024/01/04 09:06:16;;;;;;;2.60;1.00;;;;;;;9.72;85.43;99315.22;5111694;28;20035;-37
2024/01/04 09:08:41;;;;;;;6.43;1.50;;;;;;;9.63;86.76;99325.16;5112034;28;20106;-37
2024/01/04 09:11:07;;;;;;;4.00;1.20;;;;;;;9.61;85.20;99323.69;5111704;28;20124;-37
2024/01/04 09:13:33;;;;;;;2.60;1.20;;;;;;;9.70;86.27;99326.03;5111110;28;20045;-36
2024/01/04 09:15:58;;;;;;;3.42;0.80;;;;;;;9.80;85.21;99333.72;5093719;28;20455;-37
2024/01/04 09:18:24;;;;;;;1.40;0.98;;;;;;;10.31;82.55;99341.53;5111837;28;20038;-38
2024/01/04 09:20:49;;;;;;;3.45;0.93;;;;;;;9.84;82.33;99345.59;5112264;28;20509;-37
2024/01/04 09:23:14;;;;;;;2.15;0.90;;;;;;;9.77;83.42;99344.72;5112309;28;20395;-37
2024/01/04 09:25:40;;;;;;;7.03;1.58;;;;;;;10.73;76.23;99345.09;5112269;28;20144;-37
2024/01/04 09:28:05;;;;;;;2.90;1.08;;;;;;;10.65;77.38;99363.91;5112050;28;20036;-37
2024/01/04 09:30:30;;;;;;;3.22;0.90;;;;;;;11.38;71.50;99360.56;5112262;28;20032;-37
2024/01/04 09:32:57;;;;;;;2.72;1.00;;;;;;;11.36;72.58;99373.28;5112176;28;20032;-38
2024/01/04 09:35:23;;;;;;;4.40;1.00;;;;;;;11.36;72.68;99381.28;5112029;28;20035;-38
2024/01/04 09:37:50;;;;;;;3.60;1.13;;;;;;;11.65;71.54;99380.16;5111835;28;20407;-38
2024/01/04 09:40:16;;;;;;;4.85;1.00;;;;;;;11.49;70.90;99387.72;5111913;28;20042;-39
2024/01/04 09:42:43;;;;;;;8.50;2.00;;;;;;;10.71;74.80;99371.94;5112104;28;20066;-39
2024/01/04 09:45:14;;;;;;;2.47;1.00;;;;;;;10.22;79.77;99388.72;5112028;28;20042;-37
2024/01/04 09:47:43;;;;;;;3.03;1.23;;;;;;;10.14;78.57;99402.16;5111822;28;20054;-37
2024/01/04 09:50:11;;;;;;;4.18;1.33;;;;;;;10.38;79.29;99403.66;5112063;28;20039;-38
2024/01/04 09:52:39;;;;;;;1.55;0.75;;;;;;;10.56;77.85;99404.00;5111866;28;20035;-39
2024/01/04 09:55:07;;;;;;;2.58;0.98;;;;;;;10.48;78.60;99401.47;5111761;28;20028;-39
2024/01/04 09:57:33;;;;;;;3.85;1.20;;;;;;;10.41;78.37;99403.25;5111628;28;20035;-38
2024/01/04 09:59:59;;;;;;;5.22;1.02;;;;;;;10.99;76.13;99408.38;5111920;28;20030;-37
2024/01/04 10:02:25;;;;;;;4.22;1.38;;;;;;;11.41;75.61;99407.38;5111823;28;20036;-37
2024/01/04 10:04:51;;;;;;;5.15;1.65;;;;;;;11.13;75.03;99420.75;5111965;28;20507;-37
2024/01/04 10:07:24;;;;;;;4.97;1.40;;;;;;;10.69;78.39;99411.25;5112136;28;20068;-37
2024/01/04 10:09:59;;;;;;;3.75;0.98;;;;;;;11.44;72.14;99408.81;5115858;28;20044;-37
2024/01/04 10:12:27;;;;;;;3.00;1.02;;;;;;;10.19;78.62;99421.06;5115773;28;20043;-37
2024/01/04 10:14:53;;;;;;;3.92;1.40;;;;;;;10.48;80.88;99417.44;5115614;28;20491;-37
2024/01/04 10:17:19;;;;;;;3.00;1.15;;;;;;;11.14;75.04;99415.22;5115293;28;20026;-36
2024/01/04 10:19:45;;;;;;;2.30;1.10;;;;;;;11.26;75.45;99415.50;5115521;28;20512;-37
2024/01/04 10:22:10;;;;;;;1.65;0.82;;;;;;;11.57;72.74;99422.19;5115404;28;20127;-37
2024/01/04 10:24:38;;;;;;;2.22;0.90;;;;;;;11.59;73.77;99431.63;5115547;28;20067;-37
2024/01/04 10:27:05;;;;;;;1.50;0.90;;;;;;;10.44;78.07;99442.81;5115152;28;20670;-37
2024/01/04 10:29:34;;;;;;;3.28;1.20;;;;;;;10.07;82.96;99433.22;5115416;28;20090;-37
2024/01/04 10:32:04;;;;;;;2.35;0.98;;;;;;;9.44;84.68;99430.25;5115189;28;20038;-37
2024/01/04 10:34:31;;;;;;;3.22;0.70;;;;;;;9.55;86.31;99433.47;5115274;28;20553;-37
2024/01/04 10:37:13;;;;;;;4.53;0.95;;;;;;;9.72;86.63;99442.88;5114930;28;20035;-36
2024/01/04 10:39:41;;;;;;;2.20;0.68;;;;;;;9.71;84.76;99446.53;5115183;28;20039;-37
2024/01/04 10:42:08;;;;;;;2.45;0.88;;;;;;;10.12;83.16;99443.31;5115178;28;20390;-36
2024/01/04 10:44:33;;;;;;;2.00;0.68;;;;;;;9.85;82.31;99424.41;5115597;28;20539;-37
2024/01/04 10:47:05;;;;;;;3.67;1.02;;;;;;;10.13;80.08;99451.09;5115084;28;20062;-37
2024/01/04 10:49:30;;;;;;;5.65;0.95;;;;;;;10.02;80.82;99449.75;5115203;28;20045;-37
2024/01/04 10:51:57;;;;;;;4.00;1.10;;;;;;;10.31;80.56;99459.50;5113921;28;20039;-37
2024/01/04 10:54:30;;;;;;;2.05;0.88;;;;;;;11.25;74.99;99458.34;5115066;28;20038;-37
2024/01/04 10:56:58;;;;;;;2.50;0.63;;;;;;;11.43;74.42;99458.66;5114452;28;20055;-37
2024/01/04 10:59:25;;;;;;;2.45;1.02;;;;;;;11.98;69.37;99456.81;5114769;28;20047;-39
2024/01/04 11:01:50;;;;;;;1.85;0.95;;;;;;;12.01;71.14;99448.44;5113543;28;20055;-36
2024/01/04 11:04:16;;;;;;;7.45;1.00;;;;;;;11.87;74.50;99460.09;5114898;28;20028;-37
2024/01/04 11:06:43;;;;;;;2.53;0.63;;;;;;;11.56;77.84;99453.38;5113362;28;20036;-37
2024/01/04 11:09:09;;;;;;;4.93;1.63;;;;;;;11.11;81.52;99450.28;5114430;28;20364;-37
2024/01/04 11:11:35;;;;;;;2.40;0.85;;;;;;;10.89;82.39;99454.03;5113288;28;20111;-39
2024/01/04 11:14:04;;;;;;;1.75;0.85;;;;;;;10.69;82.24;99451.19;5095042;28;20372;-36
2024/01/04 11:16:40;;;;;;;4.28;1.55;;;;;;;10.83;83.11;99462.78;5113541;28;20044;-36
2024/01/04 11:19:27;;;;;;;1.90;0.80;;;;;;;10.28;85.46;99459.03;5114248;28;20039;-38
2024/01/04 11:22:40;;;;;;;2.90;1.05;;;;;;;11.51;79.80;99455.81;5111928;28;20517;-37
2024/01/04 11:25:12;;;;;;;4.55;1.23;;;;;;;11.28;81.63;99447.28;5112489;28;20031;-38
2024/01/04 11:27:38;;;;;;;2.58;1.20;;;;;;;11.09;81.98;99433.66;5113694;28;20091;-36
2024/01/04 11:30:04;;;;;;;2.03;1.00;;;;;;;11.08;83.62;99423.16;5113997;28;20069;-39
2024/01/04 11:32:31;;;;;;;4.88;1.42;;;;;;;12.17;77.60;99424.00;5113808;28;20031;-37
2024/01/04 11:34:57;;;;;;;2.28;1.10;;;;;;;11.63;80.14;99438.22;5113708;28;20502;-37
2024/01/04 11:37:23;;;;;;;3.13;0.75;;;;;;;10.91;79.07;99444.00;5113654;28;20036;-37
2024/01/04 11:40:05;;;;;;;3.78;0.93;;;;;;;10.67;76.27;99444.41;5114047;28;20031;-37
2024/01/04 11:42:35;;;;;;;2.22;0.68;;;;;;;10.11;78.29;99453.13;5113932;28;20039;-39
2024/01/04 11:45:04;;;;;;;4.80;1.20;;;;;;;10.08;78.57;99442.84;5113800;28;20061;-38
2024/01/04 11:47:42;;;;;;;4.50;1.27;;;;;;;9.77;81.59;99445.78;5113794;28;20031;-38
2024/01/04 11:50:17;;;;;;;2.42;0.90;;;;;;;9.65;83.83;99444.59;5113587;28;20027;-38
2024/01/04 11:52:45;;;;;;;2.80;0.77;;;;;;;10.03;81.80;99445.25;5110916;28;20106;-36
2024/01/04 11:55:12;;;;;;;3.20;0.82;;;;;;;10.54;78.87;99440.63;5113609;28;20483;-38
2024/01/04 11:57:39;;;;;;;4.80;1.05;;;;;;;10.46;82.27;99445.28;5112847;28;20080;-38
2024/01/04 12:00:14;;;;;;;3.00;0.70;;;;;;;10.59;81.39;99435.56;5113110;28;20035;-38
2024/01/04 12:02:41;;;;;;;4.78;0.90;;;;;;;10.91;81.75;99430.66;5111381;28;20027;-37
2024/01/04 12:05:06;;;;;;;4.57;1.40;;;;;;;10.74;81.60;99427.47;5113153;28;20058;-37
2024/01/04 12:07:36;;;;;;;3.53;0.95;;;;;;;10.42;85.37;99454.66;5112712;28;20063;-37
2024/01/04 12:10:02;;;;;;;4.90;1.45;;;;;;;10.27;85.04;99442.25;5113047;28;20164;-36
2024/01/04 12:12:28;;;;;;;4.63;1.23;;;;;;;10.17;86.83;99438.22;5112917;28;20483;-36
2024/01/04 12:14:53;;;;;;;3.92;1.05;;;;;;;10.00;87.26;99433.16;5112905;28;20044;-36
2024/01/04 12:17:19;;;;;;;5.50;1.73;;;;;;;10.14;87.38;99436.75;5112596;28;20039;-37
2024/01/04 12:19:44;;;;;;;5.57;1.67;;;;;;;10.05;88.94;99438.75;5114175;28;20036;-36
2024/01/04 12:22:10;;;;;;;5.70;1.42;;;;;;;9.89;88.71;99440.78;5112824;28;20063;-36
2024/01/04 12:24:38;;;;;;;6.85;2.00;;;;;;;9.94;87.40;99427.75;5112548;28;20038;-37
2024/01/04 12:27:05;;;;;;;6.10;1.38;;;;;;;9.46;89.32;99430.09;5110167;28;20042;-36
2024/01/04 12:29:30;;;;;;;5.05;1.48;;;;;;;9.64;88.44;99430.50;5113009;28;20039;-37
2024/01/04 12:31:56;;;;;;;3.80;1.58;;;;;;;9.62;88.04;99419.22;5112520;28;20035;-37
2024/01/04 12:34:22;;;;;;;4.82;1.40;;;;;;;9.75;86.78;99421.22;5112641;27;20040;-37
2024/01/04 12:36:48;;;;;;;5.85;1.25;;;;;;;10.17;84.52;99422.25;5112577;28;20044;-36
2024/01/04 12:39:14;;;;;;;3.50;1.90;;;;;;;10.22;83.80;99428.66;5113065;28;20027;-36
2024/01/04 12:41:44;;;;;;;5.10;1.10;;;;;;;10.47;83.07;99423.78;5112783;28;20059;-39
2024/01/04 12:44:10;;;;;;;1.83;1.00;;;;;;;10.58;81.23;99427.78;5112828;28;20032;-37
2024/01/04 12:46:35;;;;;;;2.88;1.10;;;;;;;10.34;82.99;99415.69;5112408;28;20046;-37
2024/01/04 12:49:09;;;;;;;3.45;1.20;;;;;;;10.22;82.27;99410.00;5112856;28;20024;-37
2024/01/04 12:51:41;;;;;;;6.45;1.38;;;;;;;10.78;84.26;99419.94;5112775;28;20119;-37
2024/01/04 12:54:07;;;;;;;7.68;1.90;;;;;;;11.00;80.81;99426.81;5112670;28;20383;-37
2024/01/04 12:56:36;;;;;;;8.23;1.77;;;;;;;10.76;75.91;99419.31;5112207;28;20089;-37
2024/01/04 12:59:04;;;;;;;1.83;0.68;;;;;;;10.51;75.69;99411.75;5112647;28;20062;-37
2024/01/04 13:01:30;;;;;;;1.67;0.88;;;;;;;10.40;75.34;99406.94;5112347;28;20035;-37
2024/01/04 13:03:59;;;;;;;3.50;1.30;;;;;;;10.24;77.63;99409.88;5112639;28;20480;-37
2024/01/04 13:06:25;;;;;;;5.25;1.05;;;;;;;10.16;76.94;99405.44;5112142;28;20452;-38
2024/01/04 13:08:51;;;;;;;3.50;0.95;;;;;;;10.35;76.47;99417.31;5112361;28;20486;-39
2024/01/04 13:11:19;;;;;;;5.75;1.13;;;;;;;10.38;77.61;99406.31;5112407;28;20074;-38
2024/01/04 13:13:45;;;;;;;2.63;0.90;;;;;;;10.31;77.43;99413.41;5112141;28;20055;-38
2024/01/04 13:16:12;;;;;;;5.30;1.58;;;;;;;10.40;78.03;99408.78;5093805;28;20065;-40
2024/01/04 13:18:37;;;;;;;2.28;1.02;;;;;;;10.09;80.66;99409.06;5112488;28;20043;-37
2024/01/04 13:21:03;;;;;;;3.33;0.95;;;;;;;10.20;81.03;99405.91;5094105;28;20082;-39
2024/01/04 13:23:31;;;;;;;4.60;1.33;;;;;;;10.01;81.76;99408.19;5111188;28;20051;-40
2024/01/04 13:25:58;;;;;;;5.57;1.02;;;;;;;9.96;82.89;99407.94;5111027;28;20482;-41
2024/01/04 13:28:23;;;;;;;4.13;1.25;;;;;;;9.92;83.60;99406.69;5112439;28;20046;-38
2024/01/04 13:30:49;;;;;;;4.97;1.35;;;;;;;9.90;83.49;99405.19;5112491;28;20490;-38
2024/01/04 13:33:15;;;;;;;2.65;1.27;;;;;;;9.89;85.28;99404.38;5112416;28;20518;-37
2024/01/04 13:35:40;;;;;;;2.67;1.10;;;;;;;9.78;85.61;99402.22;5110912;28;20036;-40
2024/01/04 13:38:07;;;;;;;1.98;1.00;;;;;;;9.73;85.54;99402.78;5110984;28;20031;-38
2024/01/04 13:40:33;;;;;;;5.22;1.50;;;;;;;9.64;86.55;99392.44;5111094;28;20035;-37
2024/01/04 13:42:59;;;;;;;5.47;1.73;;;;;;;9.73;86.61;99400.13;5114098;28;20417;-39
2024/01/04 13:45:24;;;;;;;3.38;1.30;;;;;;;9.80;85.45;99397.53;5099814;28;20036;-39
2024/01/04 13:47:50;;;;;;;1.95;0.70;;;;;;;9.83;86.43;99399.81;5119040;28;20063;-39
2024/01/04 13:50:15;;;;;;;5.75;1.65;;;;;;;9.82;85.57;99406.16;5118106;28;20035;-38
2024/01/04 13:52:41;;;;;;;2.85;0.82;;;;;;;9.90;83.64;99403.34;5117837;28;20382;-38
2024/01/04 13:55:07;;;;;;;1.63;0.88;;;;;;;10.06;83.82;99400.47;5116922;28;20574;-38
2024/01/04 14:01:03;;;;;;;2.45;1.08;;;;;;;10.53;79.57;99398.22;5111508;28;20097;-39
2024/01/04 14:03:29;;;;;;;4.30;1.08;;;;;;;10.48;80.21;99406.78;5115051;28;20039;-38
2024/01/04 14:05:59;;;;;;;3.90;1.13;;;;;;;10.46;81.25;99408.81;5115925;28;20097;-39
2024/01/04 14:08:24;;;;;;;3.38;1.50;;;;;;;10.50;80.52;99410.09;5114797;28;20039;-39
2024/01/04 14:10:50;;;;;;;4.72;1.30;;;;;;;10.34;82.33;99410.34;5115952;28;20033;-37
2024/01/04 14:13:17;;;;;;;4.57;1.45;;;;;;;10.25;83.23;99414.19;5116063;28;20108;-37
2024/01/04 14:15:45;;;;;;;5.22;1.15;;;;;;;10.27;82.00;99415.63;5115973;28;20043;-42
2024/01/04 14:18:13;;;;;;;2.13;1.10;;;;;;;10.36;81.21;99420.81;5114590;28;20035;-42
2024/01/04 14:20:40;;;;;;;;;;;;;;;10.16;82.52;99423.25;5114909;28;20044;-39
2024/01/04 14:23:07;;;;;;;2.63;1.02;;;;;;;10.18;84.39;99431.91;5115909;27;19916;-39
2024/01/04 14:25:34;;;;;;;3.58;0.90;;;;;;;9.99;85.95;99425.38;5115529;28;20126;-38
2024/01/04 14:28:00;;;;;;;2.33;0.75;;;;;;;9.91;88.19;99426.31;5115134;28;20044;-38
2024/01/04 14:30:25;;;;;;;6.50;1.50;;;;;;;9.96;86.66;99431.88;5115497;28;20092;-37
2024/01/04 14:32:51;;;;;;;3.53;1.10;;;;;;;9.94;88.49;99431.25;5115400;28;20039;-37
2024/01/04 14:35:17;;;;;;;4.18;1.25;;;;;;;9.95;87.98;99432.88;5115410;28;20164;-37
2024/01/04 14:37:42;;;;;;;2.38;0.93;;;;;;;9.63;90.92;99433.34;5115075;27;20110;-37
2024/01/04 14:40:08;;;;;;;3.78;1.42;;;;;;;9.46;92.97;99438.88;5115441;28;20447;-36
2024/01/04 14:42:34;;;;;;;2.30;0.90;;;;;;;9.50;90.25;99434.00;5115268;28;20047;-36
2024/01/04 14:45:00;;;;;;;3.33;0.90;;;;;;;9.45;93.83;99444.38;5115167;28;20184;-37
2024/01/04 14:47:27;;;;;;;2.30;0.88;;;;;;;9.42;94.14;99439.44;5114902;28;20027;-37
2024/01/04 14:49:53;;;;;;;1.67;0.88;;;;;;;9.24;96.15;99431.84;5110123;28;20023;-38
2024/01/04 14:52:19;;;;;;;3.92;1.23;;;;;;;9.20;96.74;99434.06;5115115;28;20395;-37
2024/01/04 14:54:44;;;;;;;1.75;0.90;;;;;;;9.20;97.56;99449.19;5114567;28;20126;-36
2024/01/04 14:57:10;;;;;;;7.85;0.90;;;;;;;9.18;97.22;99448.50;5116101;28;20042;-38
2024/01/04 14:59:35;;;;;;;1.73;0.88;;;;;;;9.18;96.87;99435.22;5116408;28;20036;-38
2024/01/04 15:02:01;;;;;;;5.88;1.17;;;;;;;9.22;97.07;99452.47;5114899;28;20399;-37
2024/01/04 15:04:26;;;;;;;5.45;1.73;;;;;;;9.30;94.13;99438.25;5115059;28;20051;-37
2024/01/04 15:06:52;;;;;;;3.35;1.00;;;;;;;9.26;94.33;99432.50;5114520;27;20047;-38
2024/01/04 15:09:18;;;;;;;5.07;0.90;;;;;;;9.03;98.22;99435.22;5114712;28;20027;-38
2024/01/04 15:11:44;;;;;;;3.85;1.10;;;;;;;8.97;100.00;99441.28;5114752;28;20036;-38
2024/01/04 15:14:10;;;;;;;4.78;1.00;;;;;;;8.89;100.00;99442.19;5114852;27;20089;-38
2024/01/04 15:16:36;;;;;;;3.72;0.80;;;;;;;8.78;100.00;99447.09;5112942;28;20043;-38
2024/01/04 15:19:01;;;;;;;1.85;0.90;;;;;;;8.63;100.00;99447.91;5114891;28;20027;-37
2024/01/04 15:21:27;;;;;;;2.45;1.00;;;;;;;8.43;100.00;99434.31;5114404;28;20042;-37
2024/01/04 15:23:52;;;;;;;7.57;1.17;;;;;;;8.34;100.00;99440.66;5114898;28;20498;-37
2024/01/04 15:26:17;;;;;;;1.75;0.88;;;;;;;8.12;100.00;99441.50;5114186;28;20379;-38
2024/01/04 15:28:43;;;;;;;5.63;1.42;;;;;;;8.13;100.00;99440.50;5114413;28;20063;-37
2024/01/04 15:31:09;;;;;;;3.47;1.10;;;;;;;8.14;100.00;99432.34;5113814;28;20106;-39
2024/01/04 15:33:34;;;;;;;2.45;1.10;;;;;;;8.19;100.00;99438.97;5113782;28;20050;-37
2024/01/04 15:36:00;;;;;;;2.03;1.00;;;;;;;8.25;100.00;99439.06;5112855;28;20031;-38
2024/01/04 15:38:26;;;;;;;2.95;1.52;;;;;;;8.48;100.00;99427.66;5113507;28;20043;-39
2024/01/04 15:40:52;;;;;;;2.88;1.27;;;;;;;8.23;100.00;99425.16;5113740;28;20066;-39
2024/01/04 15:43:18;;;;;;;7.85;1.77;;;;;;;8.05;100.00;99422.81;5113284;28;20607;-39
2024/01/04 15:45:43;;;;;;;7.05;1.60;;;;;;;7.94;100.00;99412.59;5112910;28;20051;-38
2024/01/04 15:48:12;;;;;;;6.00;1.50;;;;;;;7.79;100.00;99417.03;5112921;28;20452;-39
2024/01/04 15:50:38;;;;;;;4.00;1.30;;;;;;;7.67;100.00;99421.06;5110485;28;20050;-39
2024/01/04 15:53:03;;;;;;;5.05;1.52;;;;;;;7.60;100.00;99419.13;5113373;28;20031;-39
2024/01/04 15:55:29;;;;;;;4.18;1.33;;;;;;;7.52;100.00;99415.69;5113325;28;20035;-36
2024/01/04 15:57:55;;;;;;;6.07;1.60;;;;;;;7.45;100.00;99412.91;5113116;28;20031;-37
2024/01/04 16:00:24;;;;;;;4.13;1.67;;;;;;;7.47;100.00;99415.38;5113584;28;20529;-38
2024/01/04 16:02:50;;;;;;;2.95;2.00;;;;;;;7.51;100.00;99414.88;5113150;28;20031;-38
2024/01/04 16:05:17;;;;;;;5.60;1.40;;;;;;;7.51;100.00;99416.69;5111045;28;20077;-38
2024/01/04 16:07:44;;;;;;;3.33;1.38;;;;;;;7.73;100.00;99417.72;5112783;28;20036;-39
2024/01/04 16:10:09;;;;;;;3.92;1.48;;;;;;;7.70;100.00;99413.59;5113086;28;20080;-37
2024/01/04 16:12:36;;;;;;;4.90;1.75;;;;;;;7.80;100.00;99408.88;5113163;28;20051;-38
2024/01/04 16:15:04;;;;;;;;;;;;;;;7.85;100.00;99414.50;5113325;28;20016;-36
2024/01/04 16:17:29;;;;;;;4.13;1.92;;;;;;;7.81;100.00;99415.84;5112601;28;20295;-36
2024/01/04 16:19:54;;;;;;;4.43;1.65;;;;;;;7.88;100.00;99411.47;5112969;27;20038;-39
2024/01/04 16:22:20;;;;;;;6.32;1.58;;;;;;;7.83;100.00;99410.38;5112725;28;20044;-37
2024/01/04 16:24:45;;;;;;;5.70;1.70;;;;;;;7.74;100.00;99420.19;5112872;28;20031;-35
2024/01/04 16:27:11;;;;;;;4.60;1.63;;;;;;;7.79;100.00;99409.88;5112772;28;20036;-38
2024/01/04 16:29:37;;;;;;;4.78;1.77;;;;;;;7.77;100.00;99408.44;5112685;28;20144;-38
2024/01/04 16:32:04;;;;;;;2.58;1.40;;;;;;;7.61;100.00;99404.03;5112678;28;20055;-36
2024/01/04 16:34:30;;;;;;;3.60;2.10;;;;;;;7.52;100.00;99400.59;5112882;28;20399;-36
2024/01/04 16:36:56;;;;;;;6.05;2.28;;;;;;;7.51;100.00;99406.09;5112292;28;20035;-37
2024/01/04 16:39:21;;;;;;;5.10;1.92;;;;;;;7.51;100.00;99390.19;5112585;28;20177;-38
2024/01/04 16:41:47;;;;;;;6.60;2.15;;;;;;;7.43;100.00;99392.88;5112397;28;20117;-39
2024/01/04 16:44:12;;;;;;;7.22;2.60;;;;;;;7.31;100.00;99387.97;5112437;28;20059;-35
2024/01/04 16:46:37;;;;;;;6.03;2.70;;;;;;;7.31;100.00;99395.09;5112218;28;20027;-38
2024/01/04 16:49:03;;;;;;;7.55;2.90;;;;;;;7.41;100.00;99394.88;5112465;28;20062;-38
2024/01/04 16:51:29;;;;;;;4.50;2.17;;;;;;;7.55;100.00;99387.00;5112339;28;20445;-38
2024/01/04 16:53:54;;;;;;;8.43;2.67;;;;;;;7.59;100.00;99393.63;5111194;28;20513;-39
2024/01/04 16:56:20;;;;;;;4.50;2.30;;;;;;;7.69;100.00;99393.38;5111938;28;20131;-36
2024/01/04 16:58:46;;;;;;;5.32;2.25;;;;;;;7.81;100.00;99396.44;5112466;28;20089;-37